Aérodrome :
LOGIN :

S'inscrire | Disclaimer

   EN    FR    IT 

 










Légende :    VFR   VFR Marginal   IFR   IFR Intensif   IFR Très Intensif
Visi : 
Plafond : 
>= 8 km
>= 3000ft
5 à 8 km
1000 à 3000 ft
1500m à 5 km
500 à 1000 ft
800 à 1500m
200 à 500 ft
< 800m
< 200 ft
Symboles :   Orages  Brouillard  Fortes neiges  Fortes précipitations  Vent > 20 kt
SIGMETs :   Divers  Orages  Givrage  Turbulence  Onde Orograph.  Cendres Volcan.







- Altitude de l'aérodrome : 844 ft
- Code IATA : OSR


LKMT - Ostrava-Mosnov

DERNIER METAR :
  • 222305Z 05005KT 0300 R22/1700 R04/0600N FZFG VV001 M08/M09 Q1007 R04/41//95 RMK REG QNH 0999

METARs EXPIRÉS :
  • 222300Z 07005KT 0600 R22/0650N R04/1000D FZFG VV001 M09/M10 Q1007 R04/41//95 TEMPO 0200 FZFG
  • 222245Z 07006KT 0800 R22/0900D R04/P2000N FZFG OVC001 M09/M10 Q1008 R04/41//95 RMK REG QNH 0999
  • 222236Z 06005KT 1200 R22/1400D R04/P2000N BR OVC002 M09/M10 Q1008 R04/41//95 RMK REG QNH 0999
  • 222230Z 06004KT 1800 BR BKN003 M10/M11 Q1008 R04/41//95 BECMG OVC002
  • 222218Z 06003KT 1800 BR BKN003 M10/M11 Q1008 R04/41//95 RMK REG QNH 0999
  • 222200Z 03002KT 1800 BR FEW004 M09/M11 Q1008 R04/41//95 TEMPO BKN003
  • 222130Z 22002KT 1800 BR NSC M10/M11 Q1008 R04/41//95 NOSIG
  • 222100Z 20002KT 1500 BR NSC M08/M09 Q1008 R04/41//95 NOSIG
  • 222030Z VRB02KT 1500 BR NSC M08/M09 Q1008 R04/41//95 TEMPO 0800 FZFG
  • 222014Z 21002KT 1500 BR NSC M08/M09 Q1009 R04/41//95 RMK REG QNH 1001
  • 222000Z 23003KT 1500 R22/0550 R04/P2000N BR NSC M08/M09 Q1009 R04/450195 TEMPO 0500 FZFG

TAF AMD TAF LKMT
Valide du 22 à 22h jusqu'au 24 à 00h UTC


222252Z 2222/2400 02008KT 1200 BR OVC004
TEMPO 2222/2309 VRB02KT 0700 FZFG OVC002
PROB30
TEMPO 2222/2307 0400 FZFG VV001
BECMG 2309/2311 4000 BR BKN011
TEMPO 2311/2318 8000 SCT020
PROB30
TEMPO 2318/2400 2500 -SN BR BKN008
Pas de NOTAMs connus pour ce terrain.



MET'MAP, la Météo Aéronautique d'un coup d'oeil ! - Copyright ORBIFLY Décembre 2007 - Disclaimer

ORBIFLY MET'MAP TEAM :

Programmation & Développement : Alexandra Zaïnal
Conception & Développement : Baudouin d'Aumeries
Co-Programmation & Développement : Marc-Olivier Méhu
Soutien technique & logistique : Manuel Goepfert

Contact : metmap@orbifly.com




SOURCES & CREDITS :

   NOAA